Bigbee Valley, Mississippi
Current Conditions -  °F | °C
As of 6:55 PM on Saturday 22 Nov 2014 (Local Time) from KGTR Reporting Station
Overcast Overcast  
Wind Chill: 63°   Ceiling: 4100
Heat Index: 63°   Visibility: 10mi
Dew Point: 50°   Wind: 9mph
Humidity: 63%   Direction: 140°SE
Pressure: 30.08"   Gusts: NA
Location:  33.2136°N, 88.5275°W
Report Text: KGTR 230055Z 14008KT 10SM OVC041 17/10 A3008
Loading
Personal Weather Stations






























Interactive Weather Map New forecast layout! Learn more

10-Day Weather Forecast

Advertisements
Track Severe Weather on mobile